Time;durP1;ratioP1;P1;durP2;ratioP2;P2;SDS_P1;SDS_P2;PMS_P1;PMS_P2;Temp;Humidity;BMP_temperature;BMP_pressure;BME280_temperature;BME280_humidity;BME280_pressure;Samples;Min_cycle;Max_cycle;Signal;HPM_P1;HPM_P2
2021/08/13 00:02:03;;;;;;;7.70;3.33;;;;;;;;;;5134917;27;20043;-72
2021/08/13 00:04:48;;;;;;;4.90;3.45;;;;;;;;;;5131907;27;20027;-73
2021/08/13 00:07:32;;;;;;;;;;;;;;;;;;5134750;27;20035;-72
2021/08/13 00:10:17;;;;;;;6.73;3.53;;;;;;;;;;5133968;27;19915;-72
2021/08/13 00:13:03;;;;;;;14.07;4.00;;;;;;;;;;5130759;27;20035;-72
2021/08/13 00:15:48;;;;;;;6.68;4.40;;;;;;;;;;5135078;27;20031;-72
2021/08/13 00:18:33;;;;;;;8.00;4.20;;;;;;;;;;5133212;27;20035;-72
2021/08/13 00:21:17;;;;;;;6.10;3.88;;;;;;;;;;5131324;27;20023;-72
2021/08/13 00:24:01;;;;;;;;;;;;;;;;;;5137435;27;20035;-72
2021/08/13 00:26:46;;;;;;;7.47;3.60;;;;;;;;;;5132207;27;19923;-72
2021/08/13 00:29:30;;;;;;;;;;;;;;;;;;5117815;27;20039;-72
2021/08/13 00:32:15;;;;;;;4.80;3.38;;;;;;;;;;5129262;27;19918;-72
2021/08/13 00:35:00;;;;;;;12.35;4.28;;;;;;;;;;5120459;27;20031;-72
2021/08/13 00:37:46;;;;;;;5.00;4.20;;;;;;;;;;5117448;27;20046;-72
2021/08/13 00:40:31;;;;;;;8.63;4.15;;;;;;;;;;5118819;27;20482;-72
2021/08/13 00:43:16;;;;;;;6.72;3.65;;;;;;;;;;5116490;27;20043;-72
2021/08/13 00:46:01;;;;;;;9.93;4.63;;;;;;;;;;5116717;27;20035;-72
2021/08/13 00:49:00;;;;;;;5.70;4.05;;;;;;;;;;5116406;27;20035;-71
2021/08/13 00:51:56;;;;;;;10.18;3.95;;;;;;;;;;5117603;27;20035;-71
2021/08/13 00:54:40;;;;;;;6.65;3.50;;;;;;;;;;5114212;27;20036;-71
2021/08/13 00:57:25;;;;;;;8.88;4.45;;;;;;;;;;5121367;27;20384;-70
2021/08/13 01:00:25;;;;;;;6.13;3.90;;;;;;;;;;5128625;27;20375;-72
2021/08/13 01:03:12;;;;;;;10.30;4.35;;;;;;;;;;5130098;27;20375;-71
2021/08/13 01:06:00;;;;;;;6.85;3.60;;;;;;;;;;5118576;27;20498;-71
2021/08/13 01:08:45;;;;;;;6.40;3.75;;;;;;;;;;5134757;27;20039;-71
2021/08/13 01:11:51;;;;;;;10.82;4.35;;;;;;;;;;5112841;27;20486;-71
2021/08/13 01:14:37;;;;;;;11.93;3.58;;;;;;;;;;5117744;27;20043;-71
2021/08/13 01:17:29;;;;;;;7.05;3.95;;;;;;;;;;5118016;27;20533;-71
2021/08/13 01:20:34;;;;;;;15.35;3.33;;;;;;;;;;5122100;27;20023;-72
2021/08/13 01:23:19;;;;;;;;;;;;;;;;;;5117384;27;20048;-71
2021/08/13 01:26:04;;;;;;;8.02;4.25;;;;;;;;;;5116486;27;19977;-72
2021/08/13 01:29:02;;;;;;;9.93;4.38;;;;;;;;;;5117373;27;20031;-71
2021/08/13 01:31:56;;;;;;;8.18;4.15;;;;;;;;;;5117336;27;20035;-72
2021/08/13 01:34:41;;;;;;;;;;;;;;;;;;5118352;27;20031;-71
2021/08/13 01:37:27;;;;;;;9.43;4.13;;;;;;;;;;5120376;28;19918;-71
2021/08/13 01:40:19;;;;;;;5.78;3.50;;;;;;;;;;5125890;27;20028;-71
2021/08/13 01:43:05;;;;;;;6.50;3.67;;;;;;;;;;5109109;28;20035;-71
2021/08/13 01:45:51;;;;;;;16.88;3.90;;;;;;;;;;5111220;28;20106;-72
2021/08/13 01:48:36;;;;;;;6.93;3.67;;;;;;;;;;5130662;27;20050;-71
2021/08/13 01:51:21;;;;;;;5.75;3.63;;;;;;;;;;5121384;27;20039;-71
2021/08/13 01:54:08;;;;;;;8.57;3.63;;;;;;;;;;5132067;27;20027;-71
2021/08/13 01:56:57;;;;;;;7.15;4.32;;;;;;;;;;5106205;28;20024;-71
2021/08/13 01:59:42;;;;;;;10.25;3.80;;;;;;;;;;5121011;27;20043;-71
2021/08/13 02:02:28;;;;;;;6.38;3.92;;;;;;;;;;5115951;28;20031;-71
2021/08/13 02:05:16;;;;;;;10.48;4.25;;;;;;;;;;5130379;28;20035;-71
2021/08/13 02:08:04;;;;;;;8.10;3.78;;;;;;;;;;5113525;27;20043;-71
2021/08/13 02:10:52;;;;;;;8.32;3.90;;;;;;;;;;5116476;28;20031;-71
2021/08/13 02:13:42;;;;;;;5.07;3.60;;;;;;;;;;5119490;27;20490;-71
2021/08/13 02:16:28;;;;;;;12.18;3.65;;;;;;;;;;5113881;28;20031;-71
2021/08/13 02:19:14;;;;;;;7.13;3.72;;;;;;;;;;5107164;28;20493;-71
2021/08/13 02:22:00;;;;;;;8.10;4.18;;;;;;;;;;5114962;28;20379;-71
2021/08/13 02:24:45;;;;;;;6.20;3.85;;;;;;;;;;5111948;28;20047;-71
2021/08/13 02:27:33;;;;;;;6.70;3.42;;;;;;;;;;5104329;28;20035;-71
2021/08/13 02:30:17;;;;;;;7.40;3.50;;;;;;;;;;5131678;28;20482;-70
2021/08/13 02:33:05;;;;;;;7.32;3.70;;;;;;;;;;5114371;28;20039;-70
2021/08/13 02:35:54;;;;;;;6.93;4.28;;;;;;;;;;5127056;27;20027;-71
2021/08/13 02:38:57;;;;;;;6.28;4.10;;;;;;;;;;5120762;27;20027;-71
2021/08/13 02:41:43;;;;;;;7.10;4.55;;;;;;;;;;5117048;28;20043;-70
2021/08/13 02:44:30;;;;;;;8.23;3.88;;;;;;;;;;5114330;28;20031;-70
2021/08/13 02:47:16;;;;;;;6.03;3.92;;;;;;;;;;5120637;27;20065;-70
2021/08/13 02:50:08;;;;;;;6.95;3.80;;;;;;;;;;5121632;27;20033;-71
2021/08/13 02:53:03;;;;;;;8.98;4.30;;;;;;;;;;5135613;27;20039;-71
2021/08/13 02:56:04;;;;;;;4.80;3.63;;;;;;;;;;5121245;27;20486;-71
2021/08/13 02:58:54;;;;;;;6.35;4.32;;;;;;;;;;5118752;27;20039;-71
2021/08/13 03:01:39;;;;;;;10.93;4.70;;;;;;;;;;5120389;27;20031;-71
2021/08/13 03:04:27;;;;;;;6.32;4.63;;;;;;;;;;5121864;27;20418;-72
2021/08/13 03:07:12;;;;;;;11.00;4.05;;;;;;;;;;5116346;27;20035;-71
2021/08/13 03:09:57;;;;;;;9.25;4.70;;;;;;;;;;5118074;27;20043;-71
2021/08/13 03:12:43;;;;;;;7.85;3.83;;;;;;;;;;5118502;27;20039;-71
2021/08/13 03:15:28;;;;;;;11.13;4.45;;;;;;;;;;5120451;27;20035;-71
2021/08/13 03:18:13;;;;;;;6.85;4.35;;;;;;;;;;5122475;27;20027;-71
2021/08/13 03:20:58;;;;;;;6.50;4.20;;;;;;;;;;5121369;27;20035;-71
2021/08/13 03:23:45;;;;;;;8.52;4.40;;;;;;;;;;5118433;27;20524;-71
2021/08/13 03:26:30;;;;;;;10.02;4.38;;;;;;;;;;5132254;27;20039;-71
2021/08/13 03:29:16;;;;;;;9.48;4.90;;;;;;;;;;5136608;27;20035;-71
2021/08/13 03:32:00;;;;;;;9.23;5.40;;;;;;;;;;5119597;27;20035;-71
2021/08/13 03:34:45;;;;;;;21.08;5.00;;;;;;;;;;5122702;27;20027;-72
2021/08/13 03:37:30;;;;;;;10.55;5.20;;;;;;;;;;5135396;27;20035;-70
2021/08/13 03:40:15;;;;;;;12.32;4.43;;;;;;;;;;5119553;27;20031;-70
2021/08/13 03:43:03;;;;;;;5.30;4.57;;;;;;;;;;5118384;27;20073;-72
2021/08/13 03:45:50;;;;;;;8.15;4.80;;;;;;;;;;5114354;27;20035;-72
2021/08/13 03:48:35;;;;;;;12.88;3.70;;;;;;;;;;5119221;27;20039;-71
2021/08/13 03:51:19;;;;;;;5.82;4.00;;;;;;;;;;5117748;27;20035;-72
2021/08/13 03:54:05;;;;;;;;;;;;;;;;;;5122743;27;20395;-72
2021/08/13 03:56:49;;;;;;;9.90;4.45;;;;;;;;;;5129464;27;19914;-72
2021/08/13 03:59:35;;;;;;;8.75;4.78;;;;;;;;;;5117385;27;20039;-72
2021/08/13 04:02:20;;;;;;;12.25;5.15;;;;;;;;;;5120423;27;20035;-72
2021/08/13 04:05:05;;;;;;;10.13;4.57;;;;;;;;;;5118310;27;20035;-72
2021/08/13 04:07:50;;;;;;;7.07;4.00;;;;;;;;;;5116538;27;20410;-71
2021/08/13 04:10:34;;;;;;;;;;;;;;;;;;5129419;27;20032;-71
2021/08/13 04:13:19;;;;;;;10.65;5.25;;;;;;;;;;5119919;27;19918;-71
2021/08/13 04:16:23;;;;;;;8.88;4.72;;;;;;;;;;5123384;27;20027;-71
2021/08/13 04:19:10;;;;;;;6.78;4.68;;;;;;;;;;5122234;27;20031;-70
2021/08/13 04:21:56;;;;;;;13.15;5.50;;;;;;;;;;5117441;27;20035;-71
2021/08/13 04:24:40;;;;;;;;;;;;;;;;;;5122580;27;20035;-71
2021/08/13 04:27:24;;;;;;;12.40;4.32;;;;;;;;;;5118533;27;20397;-71
2021/08/13 04:30:10;;;;;;;9.27;5.00;;;;;;;;;;5117700;27;20031;-71
2021/08/13 04:32:55;;;;;;;11.43;4.80;;;;;;;;;;5116496;27;20039;-71
2021/08/13 04:35:39;;;;;;;5.95;4.05;;;;;;;;;;5132252;27;20035;-71
2021/08/13 04:38:25;;;;;;;9.15;4.30;;;;;;;;;;5120101;27;20475;-70
2021/08/13 04:41:10;;;;;;;10.02;4.35;;;;;;;;;;5115275;27;20031;-71
2021/08/13 04:43:57;;;;;;;6.50;3.83;;;;;;;;;;5120408;27;20038;-71
2021/08/13 04:46:41;;;;;;;;;;;;;;;;;;5118737;27;20403;-70
2021/08/13 04:49:26;;;;;;;7.65;3.63;;;;;;;;;;5114615;27;20109;-70
2021/08/13 04:52:11;;;;;;;12.40;4.80;;;;;;;;;;5117982;27;20039;-70
2021/08/13 04:54:56;;;;;;;11.07;4.43;;;;;;;;;;5117763;27;20035;-71
2021/08/13 04:57:41;;;;;;;13.55;4.60;;;;;;;;;;5126133;27;20380;-70
2021/08/13 05:00:25;;;;;;;;;;;;;;;;;;5132196;27;20031;-70
2021/08/13 05:03:13;;;;;;;8.85;4.65;;;;;;;;;;5116663;27;19914;-70
2021/08/13 05:06:03;;;;;;;7.72;4.65;;;;;;;;;;5112858;27;20039;-70
2021/08/13 05:08:49;;;;;;;10.27;4.90;;;;;;;;;;5128878;27;20035;-70
2021/08/13 05:11:33;;;;;;;15.35;4.78;;;;;;;;;;5130544;27;20515;-70
2021/08/13 05:14:19;;;;;;;10.35;4.38;;;;;;;;;;5114588;27;20038;-69
2021/08/13 05:17:03;;;;;;;12.90;5.15;;;;;;;;;;5132941;27;20031;-69
2021/08/13 05:19:48;;;;;;;6.60;4.03;;;;;;;;;;5129496;27;20042;-71
2021/08/13 05:22:34;;;;;;;11.52;4.50;;;;;;;;;;5115845;27;20387;-70
2021/08/13 05:25:18;;;;;;;6.28;4.22;;;;;;;;;;5114748;27;20383;-69
2021/08/13 05:28:03;;;;;;;7.32;4.28;;;;;;;;;;5135099;27;20039;-71
2021/08/13 05:30:50;;;;;;;8.45;5.07;;;;;;;;;;5114548;27;20494;-71
2021/08/13 05:33:35;;;;;;;7.82;3.80;;;;;;;;;;5118375;27;20039;-70
2021/08/13 05:36:19;;;;;;;11.02;3.78;;;;;;;;;;5131258;27;20035;-72
2021/08/13 05:39:04;;;;;;;16.63;4.15;;;;;;;;;;5117088;28;20038;-70
2021/08/13 05:41:49;;;;;;;7.00;4.18;;;;;;;;;;5129777;27;20035;-73
2021/08/13 05:44:33;;;;;;;;;;;;;;;;;;5116788;27;20039;-72
2021/08/13 05:47:18;;;;;;;13.73;4.97;;;;;;;;;;5119493;28;19914;-72
2021/08/13 05:50:04;;;;;;;16.35;4.93;;;;;;;;;;5117277;28;20047;-72
2021/08/13 05:52:50;;;;;;;22.40;7.18;;;;;;;;;;5115028;28;20044;-71
2021/08/13 05:55:35;;;;;;;18.17;6.35;;;;;;;;;;5128866;28;20501;-71
2021/08/13 05:58:20;;;;;;;11.82;5.80;;;;;;;;;;5099552;28;20070;-72
2021/08/13 06:01:05;;;;;;;;;;;;;;;;;;5128124;28;20391;-72
2021/08/13 06:03:50;;;;;;;9.90;5.15;;;;;;;;;;5111633;28;20385;-71
2021/08/13 06:06:35;;;;;;;;;;;;;;;;;;5117545;28;20035;-71
2021/08/13 06:09:19;;;;;;;16.00;6.18;;;;;;;;;;5121137;28;19914;-71
2021/08/13 06:12:05;;;;;;;11.00;5.22;;;;;;;;;;5099211;28;20038;-73
2021/08/13 06:14:50;;;;;;;9.15;5.22;;;;;;;;;;5103831;28;20402;-71
2021/08/13 06:17:35;;;;;;;24.35;5.25;;;;;;;;;;5119873;27;20031;-73
2021/08/13 06:20:22;;;;;;;8.75;4.78;;;;;;;;;;5129188;27;20032;-74
2021/08/13 06:23:22;;;;;;;22.17;5.47;;;;;;;;;;5119463;27;20474;-70
2021/08/13 06:26:11;;;;;;;14.07;4.38;;;;;;;;;;5135840;27;20050;-74
2021/08/13 06:28:59;;;;;;;317.98;67.68;;;;;;;;;;5121471;27;20385;-71
2021/08/13 06:31:45;;;;;;;376.50;78.38;;;;;;;;;;5122354;27;20391;-73
2021/08/13 06:34:30;;;;;;;165.32;37.72;;;;;;;;;;5118640;27;20038;-72
2021/08/13 06:37:14;;;;;;;;;;;;;;;;;;5121247;27;20394;-72
2021/08/13 06:39:59;;;;;;;133.68;32.30;;;;;;;;;;5119363;27;19914;-73
2021/08/13 06:42:43;;;;;;;;;;;;;;;;;;5121016;27;21333;-73
2021/08/13 06:45:30;;;;;;;113.57;28.40;;;;;;;;;;5119974;27;19915;-72
2021/08/13 06:48:23;;;;;;;90.85;21.85;;;;;;;;;;5119493;27;20046;-73
2021/08/13 06:51:08;;;;;;;52.60;14.10;;;;;;;;;;5122394;27;20449;-72
2021/08/13 06:53:54;;;;;;;56.03;14.10;;;;;;;;;;5120221;27;20402;-73
2021/08/13 06:56:39;;;;;;;48.75;13.32;;;;;;;;;;5119976;27;20042;-73
2021/08/13 06:59:23;;;;;;;;;;;;;;;;;;5135299;27;20042;-71
2021/08/13 07:02:08;;;;;;;50.65;14.65;;;;;;;;;;5121325;27;19918;-73
2021/08/13 07:04:54;;;;;;;45.70;13.02;;;;;;;;;;5118150;27;20042;-71
2021/08/13 07:07:38;;;;;;;;;;;;;;;;;;5123437;27;20046;-73
2021/08/13 07:10:23;;;;;;;;;;;;;;;;;;5122041;27;19934;-72
2021/08/13 07:13:07;;;;;;;29.15;10.15;;;;;;;;;;5118622;27;19918;-72
2021/08/13 07:15:53;;;;;;;40.80;10.80;;;;;;;;;;5122427;27;20038;-73
2021/08/13 07:18:38;;;;;;;27.10;10.60;;;;;;;;;;5121883;27;20030;-73
2021/08/13 07:21:23;;;;;;;24.23;8.77;;;;;;;;;;5119679;27;20513;-73
2021/08/13 07:24:07;;;;;;;;;;;;;;;;;;5124714;27;20027;-73
2021/08/13 07:26:52;;;;;;;25.38;8.00;;;;;;;;;;5119866;27;19918;-73
2021/08/13 07:29:36;;;;;;;27.98;9.45;;;;;;;;;;5142474;27;20039;-72
2021/08/13 07:32:21;;;;;;;;;;;;;;;;;;5135932;27;20047;-73
2021/08/13 07:35:05;;;;;;;26.80;9.38;;;;;;;;;;5137747;27;19926;-73
2021/08/13 07:37:58;;;;;;;24.13;8.63;;;;;;;;;;5118219;27;20027;-73
2021/08/13 07:40:43;;;;;;;27.27;9.38;;;;;;;;;;5120788;27;20042;-72
2021/08/13 07:43:27;;;;;;;;;;;;;;;;;;5134619;27;20035;-72
2021/08/13 07:46:11;;;;;;;14.52;6.15;;;;;;;;;;5120733;27;20302;-73
2021/08/13 07:48:56;;;;;;;19.35;7.40;;;;;;;;;;5131617;27;20050;-73
2021/08/13 07:51:41;;;;;;;30.42;9.45;;;;;;;;;;5118024;27;20035;-72
2021/08/13 07:54:26;;;;;;;16.95;8.45;;;;;;;;;;5118388;27;20038;-73
2021/08/13 07:57:10;;;;;;;;;;;;;;;;;;5138178;27;20031;-73
2021/08/13 07:59:54;;;;;;;22.60;7.38;;;;;;;;;;5136343;27;19914;-73
2021/08/13 08:02:42;;;;;;;12.68;7.72;;;;;;;;;;5114813;27;20027;-73
2021/08/13 08:05:26;;;;;;;;;;;;;;;;;;5132523;27;20035;-73
2021/08/13 08:08:10;;;;;;;26.63;7.93;;;;;;;;;;5131364;27;19914;-73
2021/08/13 08:10:54;;;;;;;;;;;;;;;;;;5132369;27;20032;-73
2021/08/13 08:13:40;;;;;;;18.42;6.15;;;;;;;;;;5135471;27;19926;-73
2021/08/13 08:16:24;;;;;;;15.43;6.35;;;;;;;;;;5135228;27;20034;-73
2021/08/13 08:19:09;;;;;;;;;;;;;;;;;;5134252;27;20038;-72
2021/08/13 08:21:53;;;;;;;16.07;6.80;;;;;;;;;;5130454;27;19943;-72
2021/08/13 08:24:37;;;;;;;;;;;;;;;;;;5132508;27;20110;-73
2021/08/13 08:27:21;;;;;;;11.30;6.23;;;;;;;;;;5128730;27;19919;-73
2021/08/13 08:30:06;;;;;;;19.80;8.05;;;;;;;;;;5133170;27;20052;-73
2021/08/13 08:32:51;;;;;;;11.07;6.82;;;;;;;;;;5132835;27;20490;-73
2021/08/13 08:35:35;;;;;;;;;;;;;;;;;;5135174;27;20024;-71
2021/08/13 08:38:19;;;;;;;14.30;8.20;;;;;;;;;;5134009;27;19914;-73
2021/08/13 08:41:04;;;;;;;19.13;9.35;;;;;;;;;;5132266;27;20394;-72
2021/08/13 08:43:49;;;;;;;16.23;7.70;;;;;;;;;;5129889;27;20039;-73
2021/08/13 08:46:33;;;;;;;15.20;7.72;;;;;;;;;;5130239;27;20390;-72
2021/08/13 08:49:18;;;;;;;;;;;;;;;;;;5132435;27;20399;-73
2021/08/13 08:52:03;;;;;;;22.35;9.73;;;;;;;;;;5132637;27;19915;-73
2021/08/13 08:54:47;;;;;;;22.15;9.30;;;;;;;;;;5130197;27;20591;-71
2021/08/13 08:57:34;;;;;;;10.57;6.43;;;;;;;;;;5131927;27;20502;-73
2021/08/13 09:00:18;;;;;;;16.45;6.43;;;;;;;;;;5130653;27;20402;-72
2021/08/13 09:03:03;;;;;;;9.93;6.05;;;;;;;;;;5131867;27;20027;-73
2021/08/13 09:05:49;;;;;;;9.27;6.03;;;;;;;;;;5131831;27;20034;-73
2021/08/13 09:08:33;;;;;;;15.30;6.38;;;;;;;;;;5129757;27;20395;-73
2021/08/13 09:11:17;;;;;;;;;;;;;;;;;;5129517;27;20034;-71
2021/08/13 09:14:03;;;;;;;13.07;6.53;;;;;;;;;;5126166;27;19919;-71
2021/08/13 09:16:59;;;;;;;12.23;6.47;;;;;;;;;;5131882;27;20034;-72
2021/08/13 09:19:45;;;;;;;14.20;6.68;;;;;;;;;;5127339;27;20036;-70
2021/08/13 09:22:29;;;;;;;13.43;5.43;;;;;;;;;;5132530;27;20031;-73
2021/08/13 09:25:14;;;;;;;11.40;4.53;;;;;;;;;;5114963;27;20035;-72
2021/08/13 09:28:17;;;;;;;7.70;4.25;;;;;;;;;;5131120;27;20046;-73
2021/08/13 09:31:25;;;;;;;8.55;4.72;;;;;;;;;;5115270;27;20034;-73
2021/08/13 09:34:10;;;;;;;10.63;4.60;;;;;;;;;;5121873;27;20380;-74
2021/08/13 09:36:54;;;;;;;12.88;7.30;;;;;;;;;;5130154;27;20027;-71
2021/08/13 09:39:40;;;;;;;8.75;4.82;;;;;;;;;;5128838;27;20034;-74
2021/08/13 09:42:34;;;;;;;13.73;4.25;;;;;;;;;;5131532;27;20039;-72
2021/08/13 09:45:21;;;;;;;11.55;4.45;;;;;;;;;;5116683;28;20032;-72
2021/08/13 09:48:06;;;;;;;8.35;4.22;;;;;;;;;;5116633;28;20027;-73
2021/08/13 09:50:51;;;;;;;9.15;5.10;;;;;;;;;;5119051;28;20383;-73
2021/08/13 09:53:42;;;;;;;10.68;5.05;;;;;;;;;;5133255;27;20031;-71
2021/08/13 09:56:28;;;;;;;12.50;4.82;;;;;;;;;;5133567;27;20032;-72
2021/08/13 09:59:14;;;;;;;17.95;5.07;;;;;;;;;;5137129;27;20035;-72
2021/08/13 10:02:08;;;;;;;13.02;4.80;;;;;;;;;;5120223;27;20019;-72
2021/08/13 10:04:52;;;;;;;22.95;6.20;;;;;;;;;;5133048;27;20051;-72
2021/08/13 10:08:03;;;;;;;13.38;5.53;;;;;;;;;;5123986;27;20039;-73
2021/08/13 10:10:48;;;;;;;13.13;5.43;;;;;;;;;;5137299;27;20043;-73
2021/08/13 10:13:39;;;;;;;14.02;4.88;;;;;;;;;;5120587;27;20483;-72
2021/08/13 10:16:25;;;;;;;8.40;4.75;;;;;;;;;;5138786;27;20375;-73
2021/08/13 10:19:15;;;;;;;9.95;5.07;;;;;;;;;;5120746;27;20486;-73
2021/08/13 10:22:00;;;;;;;7.05;5.10;;;;;;;;;;5119369;27;20027;-73
2021/08/13 10:24:47;;;;;;;8.00;4.32;;;;;;;;;;5119570;27;20031;-73
2021/08/13 10:27:32;;;;;;;4.70;3.75;;;;;;;;;;5116097;27;20035;-73
2021/08/13 10:30:23;;;;;;;6.20;4.18;;;;;;;;;;5119811;27;20482;-73
2021/08/13 10:33:08;;;;;;;10.35;4.28;;;;;;;;;;5109846;27;20043;-73
2021/08/13 10:35:56;;;;;;;22.23;4.30;;;;;;;;;;5119754;27;20035;-73
2021/08/13 10:38:42;;;;;;;8.05;4.38;;;;;;;;;;5125325;27;20031;-73
2021/08/13 10:41:28;;;;;;;9.65;4.95;;;;;;;;;;5129416;27;20035;-74
2021/08/13 10:44:18;;;;;;;7.30;3.70;;;;;;;;;;5134787;27;20047;-72
2021/08/13 10:47:08;;;;;;;5.65;3.75;;;;;;;;;;5119287;27;20035;-73
2021/08/13 10:49:54;;;;;;;7.18;3.30;;;;;;;;;;5119861;27;20035;-73
2021/08/13 10:52:39;;;;;;;6.57;4.05;;;;;;;;;;5104275;27;20039;-73
2021/08/13 10:55:42;;;;;;;6.15;3.35;;;;;;;;;;5120734;27;20027;-73
2021/08/13 10:58:36;;;;;;;7.57;3.20;;;;;;;;;;5121637;27;20023;-74
2021/08/13 11:01:21;;;;;;;6.80;2.97;;;;;;;;;;5112901;27;20367;-73
2021/08/13 11:04:18;;;;;;;6.95;3.40;;;;;;;;;;5129657;27;20483;-73
2021/08/13 11:07:05;;;;;;;5.38;3.40;;;;;;;;;;5130031;27;20031;-72
2021/08/13 11:09:50;;;;;;;17.63;5.20;;;;;;;;;;5146807;27;20031;-73
2021/08/13 11:12:51;;;;;;;14.10;4.40;;;;;;;;;;5118248;27;20042;-73
2021/08/13 11:15:36;;;;;;;75.70;15.63;;;;;;;;;;5119804;27;20031;-73
2021/08/13 11:18:29;;;;;;;11.85;4.57;;;;;;;;;;5122118;27;20034;-73
2021/08/13 11:21:30;;;;;;;4.68;3.20;;;;;;;;;;5113848;27;20027;-73
2021/08/13 11:24:16;;;;;;;15.23;3.22;;;;;;;;;;5112886;27;20043;-72
2021/08/13 11:27:07;;;;;;;43.35;11.77;;;;;;;;;;5114033;27;20035;-73
2021/08/13 11:29:53;;;;;;;25.05;4.90;;;;;;;;;;5115762;27;20236;-73
2021/08/13 11:32:44;;;;;;;82.22;21.60;;;;;;;;;;5117873;27;20054;-72
2021/08/13 11:35:36;;;;;;;94.60;24.73;;;;;;;;;;5120656;27;20042;-71
2021/08/13 11:38:39;;;;;;;89.50;24.00;;;;;;;;;;5129010;27;20497;-72
2021/08/13 11:41:24;;;;;;;92.40;26.88;;;;;;;;;;5132942;27;20046;-72
2021/08/13 11:44:26;;;;;;;20.67;8.13;;;;;;;;;;5120808;27;20050;-72
2021/08/13 11:47:14;;;;;;;80.05;21.00;;;;;;;;;;5126107;27;20425;-73
2021/08/13 11:50:04;;;;;;;64.03;19.63;;;;;;;;;;5118473;27;20062;-72
2021/08/13 11:52:49;;;;;;;10.82;4.20;;;;;;;;;;5111970;27;20047;-73
2021/08/13 11:55:34;;;;;;;75.22;21.27;;;;;;;;;;5121898;27;20517;-72
2021/08/13 11:58:21;;;;;;;80.18;21.45;;;;;;;;;;5128172;27;20030;-72
2021/08/13 12:01:06;;;;;;;43.58;16.48;;;;;;;;;;5111958;27;20042;-72
2021/08/13 12:03:52;;;;;;;49.03;15.20;;;;;;;;;;5111856;27;20042;-73
2021/08/13 12:06:37;;;;;;;60.08;17.55;;;;;;;;;;5113511;27;20042;-73
2021/08/13 12:09:30;;;;;;;17.05;7.43;;;;;;;;;;5123515;27;20513;-73
2021/08/13 12:12:17;;;;;;;17.73;7.03;;;;;;;;;;5119436;27;20039;-72
2021/08/13 12:15:04;;;;;;;30.85;6.05;;;;;;;;;;5122829;27;20048;-74
2021/08/13 12:17:53;;;;;;;12.73;5.25;;;;;;;;;;5120163;27;20034;-73
2021/08/13 12:20:38;;;;;;;9.57;4.10;;;;;;;;;;5133188;27;20046;-74
2021/08/13 12:23:23;;;;;;;8.38;3.85;;;;;;;;;;5116951;27;20032;-73
2021/08/13 12:26:07;;;;;;;11.77;5.95;;;;;;;;;;5116247;27;20035;-73
2021/08/13 12:28:52;;;;;;;11.88;5.10;;;;;;;;;;5116629;27;20039;-74
2021/08/13 12:31:51;;;;;;;18.40;4.15;;;;;;;;;;5119622;27;20057;-73
2021/08/13 12:34:36;;;;;;;12.52;4.40;;;;;;;;;;5137191;27;20056;-74
2021/08/13 12:37:21;;;;;;;14.60;5.75;;;;;;;;;;5115543;27;20052;-74
2021/08/13 12:40:08;;;;;;;13.98;4.60;;;;;;;;;;5120607;27;20042;-74
2021/08/13 12:42:53;;;;;;;15.95;4.00;;;;;;;;;;5119062;27;20035;-72
2021/08/13 12:45:39;;;;;;;9.65;4.75;;;;;;;;;;5117324;27;20047;-73
2021/08/13 12:48:25;;;;;;;10.15;5.28;;;;;;;;;;5135894;27;20035;-73
2021/08/13 12:51:24;;;;;;;14.45;4.70;;;;;;;;;;5118889;27;20031;-73
2021/08/13 12:54:27;;;;;;;5.40;3.22;;;;;;;;;;5122079;27;20038;-73
2021/08/13 12:57:15;;;;;;;6.25;3.58;;;;;;;;;;5115544;27;20035;-73
2021/08/13 13:00:05;;;;;;;7.65;5.13;;;;;;;;;;5119625;27;20020;-73
2021/08/13 13:03:09;;;;;;;8.07;3.88;;;;;;;;;;5116164;27;20070;-73
2021/08/13 13:06:01;;;;;;;7.25;3.60;;;;;;;;;;5128942;27;20023;-73
2021/08/13 13:08:47;;;;;;;65.75;6.40;;;;;;;;;;5121251;27;20023;-73
2021/08/13 13:11:33;;;;;;;12.20;4.35;;;;;;;;;;5119892;27;20035;-73
2021/08/13 13:14:18;;;;;;;5.70;3.42;;;;;;;;;;5116277;27;20046;-73
2021/08/13 13:17:07;;;;;;;6.15;3.33;;;;;;;;;;5119785;27;20031;-72
2021/08/13 13:20:07;;;;;;;33.67;5.82;;;;;;;;;;5118199;27;20027;-73
2021/08/13 13:23:03;;;;;;;15.88;4.95;;;;;;;;;;5115221;27;20050;-73
2021/08/13 13:25:49;;;;;;;23.65;4.63;;;;;;;;;;5118424;27;20070;-73
2021/08/13 13:29:07;;;;;;;12.55;3.88;;;;;;;;;;5131693;27;20415;-73
2021/08/13 13:32:16;;;;;;;10.20;3.58;;;;;;;;;;5129996;27;20305;-74
2021/08/13 13:35:23;;;;;;;6.25;3.67;;;;;;;;;;5115833;27;20031;-73
2021/08/13 13:38:13;;;;;;;7.55;3.97;;;;;;;;;;5119525;27;20031;-73
2021/08/13 13:40:59;;;;;;;10.18;5.07;;;;;;;;;;5132010;27;20027;-73
2021/08/13 13:43:44;;;;;;;13.30;5.68;;;;;;;;;;5116207;28;20402;-73
2021/08/13 13:46:28;;;;;;;37.90;5.47;;;;;;;;;;5127830;28;20046;-73
2021/08/13 13:49:12;;;;;;;11.73;4.15;;;;;;;;;;5134915;27;20035;-73
2021/08/13 13:51:57;;;;;;;7.38;3.83;;;;;;;;;;5114166;28;20395;-73
2021/08/13 13:54:41;;;;;;;6.07;3.88;;;;;;;;;;5134997;27;20031;-73
2021/08/13 13:57:28;;;;;;;7.05;3.50;;;;;;;;;;5116131;28;20040;-74
2021/08/13 14:00:14;;;;;;;6.78;4.13;;;;;;;;;;5099253;28;20272;-74
2021/08/13 14:03:04;;;;;;;6.70;3.75;;;;;;;;;;5097404;28;20028;-74
2021/08/13 14:05:49;;;;;;;9.80;3.95;;;;;;;;;;5111965;28;20047;-74
2021/08/13 14:08:33;;;;;;;6.13;3.55;;;;;;;;;;5097061;28;20036;-74
2021/08/13 14:11:20;;;;;;;8.65;3.63;;;;;;;;;;5121221;28;20039;-73
2021/08/13 14:14:04;;;;;;;16.30;4.75;;;;;;;;;;5134055;27;20510;-73
2021/08/13 14:16:49;;;;;;;6.45;4.40;;;;;;;;;;5132376;28;20039;-73
2021/08/13 14:19:33;;;;;;;6.88;3.70;;;;;;;;;;5118531;27;20489;-72
2021/08/13 14:22:18;;;;;;;10.23;4.63;;;;;;;;;;5098946;28;20040;-73
2021/08/13 14:25:04;;;;;;;6.43;4.45;;;;;;;;;;5097586;28;20048;-73
2021/08/13 14:27:49;;;;;;;9.48;4.80;;;;;;;;;;5100926;28;20499;-74
2021/08/13 14:30:34;;;;;;;8.80;4.10;;;;;;;;;;5099301;28;20032;-73
2021/08/13 14:33:18;;;;;;;10.65;4.43;;;;;;;;;;5126817;28;20039;-74
2021/08/13 14:36:04;;;;;;;9.60;3.70;;;;;;;;;;5118585;28;20039;-74
2021/08/13 14:38:49;;;;;;;8.15;3.88;;;;;;;;;;5122915;27;20028;-74
2021/08/13 14:41:34;;;;;;;8.73;3.92;;;;;;;;;;5119474;27;20028;-74
2021/08/13 14:44:20;;;;;;;6.75;4.10;;;;;;;;;;5109932;28;20040;-73
2021/08/13 14:47:05;;;;;;;5.50;3.65;;;;;;;;;;5105989;28;20035;-74
2021/08/13 14:49:51;;;;;;;10.32;3.80;;;;;;;;;;5104065;28;20040;-74
2021/08/13 14:52:35;;;;;;;7.85;3.58;;;;;;;;;;5119741;27;20403;-74
2021/08/13 14:55:21;;;;;;;7.68;3.63;;;;;;;;;;5112358;28;20043;-74
2021/08/13 14:58:06;;;;;;;9.50;4.07;;;;;;;;;;5105664;27;20356;-74
2021/08/13 15:00:52;;;;;;;7.97;3.97;;;;;;;;;;5107354;27;20035;-74
2021/08/13 15:03:39;;;;;;;6.05;3.75;;;;;;;;;;5124896;27;20031;-75
2021/08/13 15:06:24;;;;;;;9.15;3.75;;;;;;;;;;5113763;27;20043;-74
2021/08/13 15:09:09;;;;;;;10.40;4.10;;;;;;;;;;5119593;27;20031;-74
2021/08/13 15:11:57;;;;;;;13.30;4.45;;;;;;;;;;5115706;27;20045;-73
2021/08/13 15:14:42;;;;;;;6.78;4.97;;;;;;;;;;5134074;27;20035;-75
2021/08/13 15:17:27;;;;;;;9.57;4.32;;;;;;;;;;5121686;27;20031;-76
2021/08/13 15:20:12;;;;;;;8.00;4.07;;;;;;;;;;5115040;27;20379;-76
2021/08/13 15:22:58;;;;;;;9.93;3.92;;;;;;;;;;5115797;27;20032;-75
2021/08/13 15:25:42;;;;;;;11.60;3.97;;;;;;;;;;5136763;27;20043;-75
2021/08/13 15:28:27;;;;;;;5.90;4.47;;;;;;;;;;5133893;27;20039;-76
2021/08/13 15:31:11;;;;;;;23.05;4.47;;;;;;;;;;5135749;27;20031;-75
2021/08/13 15:33:55;;;;;;;16.20;4.30;;;;;;;;;;5134030;27;20035;-75
2021/08/13 15:36:40;;;;;;;16.10;4.45;;;;;;;;;;5136090;27;20042;-75
2021/08/13 15:39:24;;;;;;;13.00;4.28;;;;;;;;;;5136097;27;20497;-72
2021/08/13 15:42:09;;;;;;;11.27;4.32;;;;;;;;;;5127656;27;20514;-73
2021/08/13 15:44:54;;;;;;;9.00;4.30;;;;;;;;;;5131031;27;20043;-75
2021/08/13 15:47:38;;;;;;;11.95;4.15;;;;;;;;;;5126152;27;20384;-73
2021/08/13 15:50:25;;;;;;;7.60;3.88;;;;;;;;;;5132040;27;20039;-75
2021/08/13 15:53:12;;;;;;;8.98;4.80;;;;;;;;;;5127637;27;20035;-74
2021/08/13 15:55:57;;;;;;;9.85;4.10;;;;;;;;;;5119854;28;20054;-74
2021/08/13 15:58:41;;;;;;;10.77;3.60;;;;;;;;;;5129551;27;20371;-74
2021/08/13 16:01:25;;;;;;;11.32;3.97;;;;;;;;;;5115806;28;20043;-75
2021/08/13 16:04:11;;;;;;;6.93;3.97;;;;;;;;;;5125470;27;20039;-75
2021/08/13 16:06:56;;;;;;;7.07;3.92;;;;;;;;;;5138636;27;20034;-75
2021/08/13 16:09:40;;;;;;;9.90;4.05;;;;;;;;;;5137042;27;20031;-75
2021/08/13 16:12:25;;;;;;;9.38;4.10;;;;;;;;;;5134433;27;20039;-75
2021/08/13 16:15:10;;;;;;;8.30;3.67;;;;;;;;;;5133538;27;20027;-73
2021/08/13 16:17:54;;;;;;;8.15;4.47;;;;;;;;;;5120219;27;20487;-75
2021/08/13 16:20:38;;;;;;;6.75;4.15;;;;;;;;;;5113824;28;20487;-75
2021/08/13 16:23:22;;;;;;;5.00;4.07;;;;;;;;;;5132175;27;20031;-76
2021/08/13 16:26:06;;;;;;;4.25;3.40;;;;;;;;;;5116107;28;20380;-75
2021/08/13 16:28:51;;;;;;;6.88;3.80;;;;;;;;;;5114872;28;20249;-76
2021/08/13 16:31:35;;;;;;;10.65;3.60;;;;;;;;;;5122395;27;20495;-74
2021/08/13 16:34:20;;;;;;;7.85;4.30;;;;;;;;;;5129199;27;20035;-75
2021/08/13 16:37:04;;;;;;;12.35;5.38;;;;;;;;;;5133256;27;20031;-75
2021/08/13 16:39:48;;;;;;;8.52;4.60;;;;;;;;;;5138682;27;20031;-75
2021/08/13 16:42:33;;;;;;;7.18;4.15;;;;;;;;;;5117487;27;20375;-75